TK981 LTBJ-LTAY
Flight info
| Callsign | TK981 |
|---|---|
| Flight time | 0h 58m |
| Altitude | 13000 |
| Route | BAPSI DCT BAGLU |
| Aircraft | C408/M-SDFGRY/S |
Departure
| Time | 2026-04-23 11:52 |
|---|---|
| Airport | Adnan Menderes International Airport (LTBJ) |
Arrival
| Time | 2026-04-23 12:50 |
|---|---|
| Airport | Çardak Airport (LTAY) |
| Time | Latitude | Longitude | Altitude | Speed | Heading |
|---|---|---|---|---|---|
| 2026-04-23 11:25 | 38.29291 | 27.15050 | 391 ft | 0 kts | 256° |
| 2026-04-23 11:32 | 38.29293 | 27.15060 | 391 ft | 2 kts | 253° |
| 2026-04-23 11:33 | 38.29298 | 27.15079 | 387 ft | 2 kts | 249° |
| 2026-04-23 11:33 | 38.29305 | 27.15098 | 378 ft | 2 kts | 240° |
| 2026-04-23 11:33 | 38.29315 | 27.15115 | 392 ft | 2 kts | 225° |
| 2026-04-23 11:33 | 38.29328 | 27.15126 | 392 ft | 2 kts | 199° |
| 2026-04-23 11:34 | 38.29343 | 27.15127 | 392 ft | 1 kts | 172° |
| 2026-04-23 11:34 | 38.29345 | 27.15127 | 392 ft | 0 kts | 170° |
| 2026-04-23 11:35 | 38.29337 | 27.15139 | 392 ft | 4 kts | 98° |
| 2026-04-23 11:36 | 38.29346 | 27.15198 | 392 ft | 9 kts | 76° |
| 2026-04-23 11:36 | 38.29365 | 27.15285 | 393 ft | 11 kts | 73° |
| 2026-04-23 11:36 | 38.29382 | 27.15358 | 392 ft | 6 kts | 77° |
| 2026-04-23 11:36 | 38.29384 | 27.15370 | 393 ft | 0 kts | 76° |
| 2026-04-23 11:39 | 38.29386 | 27.15384 | 393 ft | 8 kts | 76° |
| 2026-04-23 11:39 | 38.29426 | 27.15424 | 395 ft | 7 kts | 341° |
| 2026-04-23 11:40 | 38.29481 | 27.15402 | 394 ft | 14 kts | 345° |
| 2026-04-23 11:40 | 38.29632 | 27.15360 | 393 ft | 30 kts | 348° |
| 2026-04-23 11:40 | 38.29837 | 27.15293 | 394 ft | 26 kts | 345° |
| 2026-04-23 11:40 | 38.29965 | 27.15235 | 396 ft | 14 kts | 312° |
| 2026-04-23 11:41 | 38.29966 | 27.15106 | 393 ft | 17 kts | 254° |
| 2026-04-23 11:41 | 38.29944 | 27.15008 | 392 ft | 9 kts | 256° |
| 2026-04-23 11:41 | 38.29909 | 27.14965 | 392 ft | 0 kts | 166° |
| 2026-04-23 11:47 | 38.29885 | 27.14972 | 392 ft | 10 kts | 167° |
| 2026-04-23 11:47 | 38.29796 | 27.14998 | 392 ft | 15 kts | 167° |
| 2026-04-23 11:47 | 38.29682 | 27.15030 | 391 ft | 19 kts | 167° |
| 2026-04-23 11:48 | 38.29657 | 27.15038 | 391 ft | 0 kts | 166° |
| 2026-04-23 11:48 | 38.29617 | 27.15050 | 391 ft | 11 kts | 167° |
| 2026-04-23 11:48 | 38.29531 | 27.15073 | 392 ft | 13 kts | 169° |
| 2026-04-23 11:48 | 38.29437 | 27.15100 | 392 ft | 12 kts | 164° |
| 2026-04-23 11:49 | 38.29400 | 27.15118 | 392 ft | 6 kts | 158° |
| 2026-04-23 11:49 | 38.29357 | 27.15141 | 392 ft | 8 kts | 143° |
| 2026-04-23 11:49 | 38.29350 | 27.15225 | 392 ft | 7 kts | 71° |
| 2026-04-23 11:49 | 38.29368 | 27.15298 | 393 ft | 5 kts | 75° |
| 2026-04-23 11:50 | 38.29377 | 27.15346 | 391 ft | 6 kts | 75° |
| 2026-04-23 11:50 | 38.29390 | 27.15409 | 395 ft | 9 kts | 74° |
| 2026-04-23 11:50 | 38.29408 | 27.15499 | 392 ft | 12 kts | 77° |
| 2026-04-23 11:50 | 38.29422 | 27.15577 | 393 ft | 10 kts | 77° |
| 2026-04-23 11:51 | 38.29436 | 27.15621 | 393 ft | 5 kts | 43° |
| 2026-04-23 11:51 | 38.29496 | 27.15613 | 394 ft | 23 kts | 346° |
| 2026-04-23 11:51 | 38.29836 | 27.15513 | 397 ft | 75 kts | 348° |
| 2026-04-23 11:51 | 38.30460 | 27.15324 | 453 ft | 106 kts | 346° |
| 2026-04-23 11:52 | 38.31254 | 27.15057 | 647 ft | 121 kts | 346° |
| 2026-04-23 11:52 | 38.32079 | 27.14770 | 991 ft | 123 kts | 346° |
| 2026-04-23 11:52 | 38.32919 | 27.14527 | 1315 ft | 125 kts | 348° |
| 2026-04-23 11:52 | 38.33749 | 27.14286 | 1718 ft | 122 kts | 348° |
| 2026-04-23 11:53 | 38.34601 | 27.14037 | 2055 ft | 128 kts | 348° |
| 2026-04-23 11:53 | 38.35468 | 27.13784 | 2524 ft | 127 kts | 348° |
| 2026-04-23 11:53 | 38.36322 | 27.13534 | 2997 ft | 127 kts | 349° |
| 2026-04-23 11:53 | 38.37211 | 27.13275 | 3348 ft | 136 kts | 349° |
| 2026-04-23 11:54 | 38.38146 | 27.13321 | 3745 ft | 135 kts | 16° |
| 2026-04-23 11:54 | 38.38978 | 27.13865 | 4205 ft | 137 kts | 38° |
| 2026-04-23 11:54 | 38.39567 | 27.14837 | 4594 ft | 147 kts | 61° |
| 2026-04-23 11:54 | 38.39858 | 27.16179 | 4783 ft | 165 kts | 75° |
| 2026-04-23 11:55 | 38.40121 | 27.17613 | 5119 ft | 167 kts | 74° |
| 2026-04-23 11:55 | 38.40400 | 27.19111 | 5261 ft | 179 kts | 74° |
| 2026-04-23 11:55 | 38.40687 | 27.20657 | 5470 ft | 179 kts | 75° |
| 2026-04-23 11:55 | 38.40976 | 27.22209 | 5648 ft | 180 kts | 75° |
| 2026-04-23 11:56 | 38.41194 | 27.23768 | 5807 ft | 182 kts | 84° |
| 2026-04-23 11:56 | 38.41304 | 27.25386 | 6002 ft | 183 kts | 83° |
| 2026-04-23 11:56 | 38.41428 | 27.27020 | 6218 ft | 185 kts | 83° |
| 2026-04-23 11:56 | 38.41553 | 27.28658 | 6408 ft | 186 kts | 84° |
| 2026-04-23 11:57 | 38.41678 | 27.30302 | 6600 ft | 186 kts | 84° |
| 2026-04-23 11:57 | 38.41802 | 27.31948 | 6825 ft | 187 kts | 83° |
| 2026-04-23 11:57 | 38.41925 | 27.33585 | 7116 ft | 187 kts | 83° |
| 2026-04-23 11:57 | 38.42049 | 27.35244 | 7422 ft | 188 kts | 84° |
| 2026-04-23 11:58 | 38.42176 | 27.36914 | 7648 ft | 189 kts | 83° |
| 2026-04-23 11:58 | 38.42227 | 27.38601 | 7804 ft | 192 kts | 98° |
| 2026-04-23 11:58 | 38.41790 | 27.40171 | 7994 ft | 189 kts | 120° |
| 2026-04-23 11:58 | 38.40910 | 27.41411 | 8125 ft | 189 kts | 147° |
| 2026-04-23 11:59 | 38.39735 | 27.42112 | 8295 ft | 185 kts | 171° |
| 2026-04-23 11:59 | 38.38469 | 27.42302 | 8399 ft | 183 kts | 179° |
| 2026-04-23 11:59 | 38.37209 | 27.42456 | 8552 ft | 183 kts | 179° |
| 2026-04-23 11:59 | 38.35932 | 27.42611 | 8713 ft | 184 kts | 179° |
| 2026-04-23 12:00 | 38.34650 | 27.42764 | 8879 ft | 185 kts | 179° |
| 2026-04-23 12:00 | 38.33383 | 27.42916 | 9032 ft | 186 kts | 179° |
| 2026-04-23 12:00 | 38.32094 | 27.43071 | 9197 ft | 186 kts | 179° |
| 2026-04-23 12:00 | 38.30795 | 27.43227 | 9372 ft | 187 kts | 179° |
| 2026-04-23 12:01 | 38.29497 | 27.43383 | 9564 ft | 188 kts | 179° |
| 2026-04-23 12:01 | 38.28190 | 27.43540 | 9738 ft | 188 kts | 179° |
| 2026-04-23 12:01 | 38.26879 | 27.43696 | 9896 ft | 189 kts | 179° |
| 2026-04-23 12:01 | 38.25573 | 27.43917 | 10028 ft | 192 kts | 168° |
| 2026-04-23 12:02 | 38.24383 | 27.44683 | 10152 ft | 197 kts | 147° |
| 2026-04-23 12:02 | 38.23457 | 27.45985 | 10280 ft | 200 kts | 126° |
| 2026-04-23 12:02 | 38.22690 | 27.47473 | 10408 ft | 201 kts | 126° |
| 2026-04-23 12:02 | 38.21915 | 27.48965 | 10522 ft | 203 kts | 127° |
| 2026-04-23 12:03 | 38.21132 | 27.50467 | 10660 ft | 203 kts | 127° |
| 2026-04-23 12:03 | 38.20361 | 27.51951 | 10785 ft | 204 kts | 127° |
| 2026-04-23 12:03 | 38.19576 | 27.53458 | 10909 ft | 205 kts | 127° |
| 2026-04-23 12:03 | 38.18790 | 27.54966 | 11039 ft | 205 kts | 128° |
| 2026-04-23 12:04 | 38.18002 | 27.56480 | 11162 ft | 205 kts | 128° |
| 2026-04-23 12:04 | 38.17211 | 27.57998 | 11286 ft | 205 kts | 128° |
| 2026-04-23 12:04 | 38.16430 | 27.59494 | 11384 ft | 206 kts | 128° |
| 2026-04-23 12:04 | 38.15636 | 27.61017 | 11488 ft | 206 kts | 128° |
| 2026-04-23 12:05 | 38.14840 | 27.62540 | 11589 ft | 208 kts | 129° |
| 2026-04-23 12:05 | 38.14039 | 27.64075 | 11707 ft | 208 kts | 129° |
| 2026-04-23 12:05 | 38.13234 | 27.65616 | 11833 ft | 209 kts | 129° |
| 2026-04-23 12:05 | 38.12429 | 27.67156 | 11981 ft | 209 kts | 130° |
| 2026-04-23 12:06 | 38.11622 | 27.68697 | 12109 ft | 209 kts | 130° |
| 2026-04-23 12:06 | 38.10827 | 27.70219 | 12216 ft | 209 kts | 130° |
| 2026-04-23 12:06 | 38.09207 | 27.73312 | 12516 ft | 210 kts | 130° |
| 2026-04-23 12:07 | 38.08407 | 27.74839 | 12691 ft | 210 kts | 131° |
| 2026-04-23 12:07 | 38.07593 | 27.76392 | 12836 ft | 211 kts | 131° |
| 2026-04-23 12:07 | 38.06773 | 27.77955 | 12893 ft | 215 kts | 131° |
| 2026-04-23 12:07 | 38.05935 | 27.79550 | 12893 ft | 218 kts | 131° |
| 2026-04-23 12:08 | 38.05090 | 27.81160 | 12903 ft | 219 kts | 131° |
| 2026-04-23 12:08 | 38.04247 | 27.82764 | 12911 ft | 221 kts | 131° |
| 2026-04-23 12:08 | 38.03388 | 27.84400 | 12911 ft | 223 kts | 130° |
| 2026-04-23 12:08 | 38.02517 | 27.86055 | 12902 ft | 225 kts | 130° |
| 2026-04-23 12:09 | 38.01644 | 27.87712 | 12901 ft | 228 kts | 130° |
| 2026-04-23 12:09 | 38.00810 | 27.89426 | 12901 ft | 231 kts | 121° |
| 2026-04-23 12:09 | 38.00370 | 27.91398 | 12897 ft | 239 kts | 101° |
| 2026-04-23 12:09 | 38.00387 | 27.93531 | 12907 ft | 242 kts | 88° |
| 2026-04-23 12:10 | 38.00510 | 27.95665 | 12906 ft | 243 kts | 88° |
| 2026-04-23 12:10 | 38.00645 | 27.97797 | 12906 ft | 242 kts | 86° |
| 2026-04-23 12:10 | 38.00826 | 27.99903 | 12895 ft | 243 kts | 85° |
| 2026-04-23 12:10 | 38.01016 | 28.02022 | 12908 ft | 242 kts | 85° |
| 2026-04-23 12:11 | 38.01210 | 28.04141 | 12882 ft | 240 kts | 85° |
| 2026-04-23 12:11 | 38.01395 | 28.06211 | 12904 ft | 234 kts | 85° |
| 2026-04-23 12:11 | 38.01499 | 28.08266 | 12892 ft | 231 kts | 98° |
| 2026-04-23 12:11 | 38.01316 | 28.10283 | 12892 ft | 230 kts | 97° |
| 2026-04-23 12:12 | 38.01344 | 28.12323 | 12899 ft | 233 kts | 88° |
| 2026-04-23 12:12 | 38.01491 | 28.14366 | 12909 ft | 236 kts | 87° |
| 2026-04-23 12:12 | 38.01624 | 28.16449 | 12920 ft | 238 kts | 89° |
| 2026-04-23 12:12 | 38.01728 | 28.18544 | 12910 ft | 238 kts | 90° |
| 2026-04-23 12:13 | 38.01832 | 28.20633 | 12908 ft | 237 kts | 89° |
| 2026-04-23 12:13 | 38.01940 | 28.22709 | 12904 ft | 235 kts | 89° |
| 2026-04-23 12:13 | 38.02047 | 28.24780 | 12904 ft | 235 kts | 89° |
| 2026-04-23 12:13 | 38.02152 | 28.26844 | 12901 ft | 234 kts | 89° |
| 2026-04-23 12:14 | 38.02260 | 28.28902 | 12900 ft | 234 kts | 89° |
| 2026-04-23 12:14 | 38.02365 | 28.30957 | 12895 ft | 232 kts | 89° |
| 2026-04-23 12:14 | 38.02469 | 28.32995 | 12909 ft | 232 kts | 90° |
| 2026-04-23 12:14 | 38.02573 | 28.35053 | 12920 ft | 235 kts | 90° |
| 2026-04-23 12:15 | 38.02679 | 28.37131 | 12902 ft | 235 kts | 90° |
| 2026-04-23 12:15 | 38.02781 | 28.39168 | 12919 ft | 232 kts | 90° |
| 2026-04-23 12:15 | 38.02885 | 28.41252 | 12915 ft | 239 kts | 90° |
| 2026-04-23 12:15 | 38.02990 | 28.43374 | 12921 ft | 240 kts | 90° |
| 2026-04-23 12:16 | 38.03098 | 28.45504 | 12916 ft | 243 kts | 90° |
| 2026-04-23 12:16 | 38.03204 | 28.47626 | 12908 ft | 244 kts | 90° |
| 2026-04-23 12:16 | 38.03310 | 28.49771 | 12913 ft | 243 kts | 90° |
| 2026-04-23 12:16 | 38.03416 | 28.51885 | 12911 ft | 238 kts | 90° |
| 2026-04-23 12:17 | 38.03519 | 28.53965 | 12905 ft | 234 kts | 90° |
| 2026-04-23 12:17 | 38.03621 | 28.56019 | 12909 ft | 233 kts | 91° |
| 2026-04-23 12:17 | 38.03718 | 28.58080 | 12904 ft | 233 kts | 90° |
| 2026-04-23 12:17 | 38.03818 | 28.60131 | 12901 ft | 229 kts | 90° |
| 2026-04-23 12:18 | 38.03915 | 28.62088 | 12908 ft | 222 kts | 90° |
| 2026-04-23 12:18 | 38.04010 | 28.64037 | 12904 ft | 219 kts | 91° |
| 2026-04-23 12:18 | 38.04101 | 28.65962 | 12906 ft | 218 kts | 91° |
| 2026-04-23 12:18 | 38.04192 | 28.67866 | 12908 ft | 218 kts | 91° |
| 2026-04-23 12:19 | 38.04284 | 28.69788 | 12909 ft | 219 kts | 90° |
| 2026-04-23 12:19 | 38.04377 | 28.71729 | 12909 ft | 219 kts | 91° |
| 2026-04-23 12:19 | 38.04469 | 28.73653 | 12913 ft | 218 kts | 91° |
| 2026-04-23 12:19 | 38.04558 | 28.75548 | 12904 ft | 217 kts | 91° |
| 2026-04-23 12:20 | 38.04648 | 28.77453 | 12916 ft | 216 kts | 91° |
| 2026-04-23 12:20 | 38.04737 | 28.79364 | 12914 ft | 217 kts | 91° |
| 2026-04-23 12:20 | 38.04827 | 28.81274 | 12918 ft | 214 kts | 91° |
| 2026-04-23 12:20 | 38.04916 | 28.83157 | 12921 ft | 214 kts | 91° |
| 2026-04-23 12:21 | 38.05002 | 28.85041 | 12925 ft | 213 kts | 91° |
| 2026-04-23 12:21 | 38.05089 | 28.86901 | 12925 ft | 215 kts | 91° |
| 2026-04-23 12:21 | 38.05177 | 28.88813 | 12928 ft | 216 kts | 91° |
| 2026-04-23 12:21 | 38.05265 | 28.90712 | 12926 ft | 215 kts | 91° |
| 2026-04-23 12:22 | 38.05352 | 28.92607 | 12923 ft | 215 kts | 91° |
| 2026-04-23 12:22 | 38.05437 | 28.94481 | 12925 ft | 215 kts | 91° |
| 2026-04-23 12:22 | 38.05524 | 28.96391 | 12909 ft | 217 kts | 92° |
| 2026-04-23 12:22 | 38.05612 | 28.98294 | 12907 ft | 213 kts | 92° |
| 2026-04-23 12:23 | 38.05697 | 29.00150 | 12910 ft | 210 kts | 92° |
| 2026-04-23 12:23 | 38.05779 | 29.01994 | 12910 ft | 209 kts | 92° |
| 2026-04-23 12:23 | 38.05860 | 29.03817 | 12906 ft | 209 kts | 92° |
| 2026-04-23 12:23 | 38.05943 | 29.05647 | 12912 ft | 207 kts | 92° |
| 2026-04-23 12:24 | 38.06024 | 29.07469 | 12910 ft | 208 kts | 92° |
| 2026-04-23 12:24 | 38.06106 | 29.09319 | 12913 ft | 210 kts | 92° |
| 2026-04-23 12:24 | 38.06186 | 29.11168 | 12918 ft | 210 kts | 91° |
| 2026-04-23 12:24 | 38.06270 | 29.13029 | 12906 ft | 210 kts | 91° |
| 2026-04-23 12:25 | 38.06351 | 29.14862 | 12868 ft | 210 kts | 92° |
| 2026-04-23 12:25 | 38.06432 | 29.16707 | 12833 ft | 209 kts | 92° |
| 2026-04-23 12:25 | 38.06512 | 29.18551 | 12784 ft | 209 kts | 92° |
| 2026-04-23 12:25 | 38.06591 | 29.20379 | 12732 ft | 210 kts | 92° |
| 2026-04-23 12:26 | 38.06671 | 29.22235 | 12670 ft | 212 kts | 91° |
| 2026-04-23 12:26 | 38.06752 | 29.24123 | 12579 ft | 217 kts | 91° |
| 2026-04-23 12:26 | 38.06836 | 29.26054 | 12483 ft | 219 kts | 90° |
| 2026-04-23 12:26 | 38.06918 | 29.27969 | 12390 ft | 220 kts | 91° |
| 2026-04-23 12:27 | 38.07001 | 29.29903 | 12293 ft | 220 kts | 90° |
| 2026-04-23 12:27 | 38.07083 | 29.31835 | 12191 ft | 218 kts | 91° |
| 2026-04-23 12:27 | 38.07045 | 29.33747 | 12083 ft | 214 kts | 100° |
| 2026-04-23 12:27 | 38.06910 | 29.35644 | 11979 ft | 215 kts | 99° |
| 2026-04-23 12:28 | 38.06788 | 29.37504 | 11881 ft | 213 kts | 99° |
| 2026-04-23 12:28 | 38.06669 | 29.39371 | 11779 ft | 211 kts | 99° |
| 2026-04-23 12:28 | 38.06549 | 29.41219 | 11671 ft | 209 kts | 99° |
| 2026-04-23 12:28 | 38.06429 | 29.43057 | 11567 ft | 209 kts | 99° |
| 2026-04-23 12:29 | 38.06304 | 29.44897 | 11462 ft | 208 kts | 99° |
| 2026-04-23 12:29 | 38.06190 | 29.46710 | 11359 ft | 208 kts | 99° |
| 2026-04-23 12:29 | 38.06069 | 29.48543 | 11256 ft | 207 kts | 99° |
| 2026-04-23 12:29 | 38.05947 | 29.50375 | 11130 ft | 208 kts | 99° |
| 2026-04-23 12:30 | 38.05826 | 29.52210 | 11006 ft | 208 kts | 99° |
| 2026-04-23 12:30 | 38.05706 | 29.54020 | 10877 ft | 207 kts | 99° |
| 2026-04-23 12:30 | 38.05584 | 29.55846 | 10737 ft | 208 kts | 99° |
| 2026-04-23 12:30 | 38.05463 | 29.57675 | 10628 ft | 207 kts | 99° |
| 2026-04-23 12:31 | 38.05343 | 29.59475 | 10489 ft | 206 kts | 99° |
| 2026-04-23 12:31 | 38.05220 | 29.61296 | 10352 ft | 207 kts | 99° |
| 2026-04-23 12:31 | 38.05098 | 29.63111 | 10223 ft | 206 kts | 98° |
| 2026-04-23 12:31 | 38.04977 | 29.64924 | 10087 ft | 206 kts | 98° |
| 2026-04-23 12:32 | 38.04896 | 29.66126 | 9997 ft | 205 kts | 98° |
| 2026-04-23 12:32 | 38.04775 | 29.67930 | 9871 ft | 205 kts | 98° |
| 2026-04-23 12:32 | 38.04613 | 29.70313 | 9660 ft | 205 kts | 97° |
| 2026-04-23 12:32 | 38.04531 | 29.71528 | 9530 ft | 205 kts | 98° |
| 2026-04-23 12:33 | 38.04409 | 29.73318 | 9352 ft | 206 kts | 98° |
| 2026-04-23 12:33 | 38.04285 | 29.75137 | 9296 ft | 206 kts | 98° |
| 2026-04-23 12:33 | 38.04160 | 29.76963 | 9272 ft | 210 kts | 98° |
| 2026-04-23 12:33 | 38.04031 | 29.78833 | 9263 ft | 215 kts | 98° |
| 2026-04-23 12:34 | 38.03899 | 29.80752 | 9224 ft | 220 kts | 97° |
| 2026-04-23 12:34 | 38.03768 | 29.82675 | 9220 ft | 222 kts | 97° |
| 2026-04-23 12:34 | 38.03633 | 29.84630 | 9235 ft | 223 kts | 97° |
| 2026-04-23 12:34 | 38.03498 | 29.86589 | 9264 ft | 223 kts | 98° |
| 2026-04-23 12:35 | 38.03363 | 29.88551 | 9293 ft | 223 kts | 98° |
| 2026-04-23 12:35 | 38.03226 | 29.90508 | 9323 ft | 223 kts | 98° |
| 2026-04-23 12:35 | 38.03090 | 29.92459 | 9342 ft | 218 kts | 98° |
| 2026-04-23 12:35 | 38.02933 | 29.94370 | 9176 ft | 218 kts | 104° |
| 2026-04-23 12:36 | 38.02377 | 29.96125 | 8949 ft | 209 kts | 126° |
| 2026-04-23 12:36 | 38.01453 | 29.97495 | 8943 ft | 202 kts | 144° |
| 2026-04-23 12:36 | 38.00295 | 29.98453 | 8946 ft | 199 kts | 155° |
| 2026-04-23 12:36 | 37.99098 | 29.99353 | 8919 ft | 202 kts | 154° |
| 2026-04-23 12:37 | 37.97860 | 30.00278 | 8646 ft | 209 kts | 156° |
| 2026-04-23 12:37 | 37.96499 | 30.00841 | 8305 ft | 208 kts | 175° |
| 2026-04-23 12:37 | 37.95075 | 30.00841 | 7989 ft | 199 kts | 193° |
| 2026-04-23 12:37 | 37.93795 | 30.00332 | 7695 ft | 190 kts | 210° |
| 2026-04-23 12:38 | 37.92719 | 29.99417 | 7406 ft | 184 kts | 224° |
| 2026-04-23 12:38 | 37.91889 | 29.98221 | 7126 ft | 178 kts | 237° |
| 2026-04-23 12:38 | 37.91243 | 29.96961 | 6862 ft | 178 kts | 240° |
| 2026-04-23 12:44 | 37.90633 | 29.95710 | 6606 ft | 179 kts | 241° |
| 2026-04-23 12:44 | 37.90017 | 29.94385 | 6322 ft | 162 kts | 242° |
| 2026-04-23 12:44 | 37.89449 | 29.93189 | 6079 ft | 161 kts | 243° |
| 2026-04-23 12:44 | 37.88855 | 29.91933 | 5927 ft | 166 kts | 242° |
| 2026-04-23 12:45 | 37.88263 | 29.90678 | 5932 ft | 169 kts | 242° |
| 2026-04-23 12:45 | 37.87657 | 29.89392 | 5931 ft | 171 kts | 242° |
| 2026-04-23 12:45 | 37.87041 | 29.88093 | 5804 ft | 161 kts | 242° |
| 2026-04-23 12:45 | 37.86513 | 29.86978 | 5599 ft | 136 kts | 244° |
| 2026-04-23 12:46 | 37.86041 | 29.85982 | 5423 ft | 131 kts | 244° |
| 2026-04-23 12:46 | 37.85590 | 29.84979 | 5247 ft | 130 kts | 250° |
| 2026-04-23 12:46 | 37.85122 | 29.83986 | 5074 ft | 132 kts | 247° |
| 2026-04-23 12:46 | 37.84651 | 29.82998 | 4947 ft | 134 kts | 246° |
| 2026-04-23 12:47 | 37.84174 | 29.82009 | 4797 ft | 133 kts | 246° |
| 2026-04-23 12:47 | 37.83698 | 29.81015 | 4583 ft | 131 kts | 248° |
| 2026-04-23 12:47 | 37.83238 | 29.80041 | 4383 ft | 125 kts | 247° |
| 2026-04-23 12:47 | 37.82804 | 29.79117 | 4195 ft | 121 kts | 247° |
| 2026-04-23 12:48 | 37.82368 | 29.78205 | 4012 ft | 120 kts | 246° |
| 2026-04-23 12:48 | 37.81956 | 29.77331 | 3841 ft | 115 kts | 245° |
| 2026-04-23 12:48 | 37.81551 | 29.76472 | 3673 ft | 113 kts | 245° |
| 2026-04-23 12:48 | 37.81143 | 29.75630 | 3519 ft | 111 kts | 243° |
| 2026-04-23 12:49 | 37.80757 | 29.74798 | 3365 ft | 106 kts | 242° |
| 2026-04-23 12:49 | 37.80395 | 29.74036 | 3222 ft | 97 kts | 243° |
| 2026-04-23 12:49 | 37.80026 | 29.73250 | 3160 ft | 114 kts | 244° |
| 2026-04-23 12:49 | 37.79601 | 29.72365 | 2968 ft | 118 kts | 243° |
| 2026-04-23 12:50 | 37.79202 | 29.71483 | 2797 ft | 115 kts | 244° |
| 2026-04-23 12:50 | 37.78839 | 29.70694 | 2774 ft | 80 kts | 237° |
| 2026-04-23 12:50 | 37.78651 | 29.70322 | 2775 ft | 42 kts | 240° |
| 2026-04-23 12:50 | 37.78510 | 29.70015 | 2777 ft | 43 kts | 239° |
| 2026-04-23 12:51 | 37.78351 | 29.69686 | 2782 ft | 45 kts | 240° |
| 2026-04-23 12:51 | 37.78195 | 29.69360 | 2784 ft | 28 kts | 237° |
| 2026-04-23 12:51 | 37.78128 | 29.69226 | 2785 ft | 20 kts | 239° |
| 2026-04-23 12:51 | 37.78045 | 29.69054 | 2786 ft | 25 kts | 236° |
| 2026-04-23 12:52 | 37.77948 | 29.68855 | 2789 ft | 25 kts | 237° |
| 2026-04-23 12:52 | 37.77865 | 29.68717 | 2791 ft | 16 kts | 202° |
| 2026-04-23 12:52 | 37.77795 | 29.68746 | 2790 ft | 11 kts | 146° |
| 2026-04-23 12:52 | 37.88319 | 29.90800 | 5931 ft | 169 kts | 242° |
| 2026-04-23 12:53 | 37.79932 | 29.73049 | 3108 ft | 119 kts | 243° |
| 2026-04-23 12:53 | 37.79507 | 29.72160 | 2933 ft | 116 kts | 244° |
| 2026-04-23 12:53 | 37.79109 | 29.71283 | 2779 ft | 113 kts | 242° |
| 2026-04-23 12:53 | 37.78785 | 29.70585 | 2774 ft | 51 kts | 239° |
| 2026-04-23 12:54 | 37.79428 | 29.71985 | 2901 ft | 115 kts | 244° |
| 2026-04-23 12:54 | 37.79034 | 29.71124 | 2773 ft | 109 kts | 243° |
| 2026-04-23 12:54 | 37.79241 | 29.71570 | 2822 ft | 115 kts | 244° |
| 2026-04-23 12:54 | 37.78873 | 29.70756 | 2773 ft | 89 kts | 236° |
| 2026-04-23 12:55 | 37.79507 | 29.72160 | 2932 ft | 116 kts | 244° |
| 2026-04-23 12:55 | 37.79109 | 29.71283 | 2779 ft | 113 kts | 242° |
| 2026-04-23 12:55 | 37.78785 | 29.70585 | 2774 ft | 51 kts | 239° |
| 2026-04-23 12:55 | 37.78720 | 29.70457 | 2774 ft | 47 kts | 236° |